Terminal Aerodrome Forecast
Issued by NWS

Home | Current Version | Previous Version | Text Only | Print | Product List | Glossary On
Versions: 1 2 3 4 5 6 7 8 9 10 11 12 13 14 15 16
000
FTUS43 KAPX 252320
TAFMBL
TAF
KMBL 252320Z 2600/2624 22011G20KT P6SM SCT025 BKN050
     FM260100 22008KT 5SM BR SCT025 BKN050 WS020/22040KT
     FM261400 21009KT P6SM SCT060 BKN250
      AMD LTD TO CLD VIS AND WIND=

USA.gov is the U.S. government's official web portal to all federal, state and local government web resources and services.